Time;durP1;ratioP1;P1;durP2;ratioP2;P2;SDS_P1;SDS_P2;PMS_P1;PMS_P2;Temp;Humidity;BMP_temperature;BMP_pressure;BME280_temperature;BME280_humidity;BME280_pressure;Samples;Min_cycle;Max_cycle;Signal;HPM_P1;HPM_P2
2022/03/06 00:00:38;;;;;;;31.33;20.53;;;-0.40;99.90;;;;;;5114024;28;20713;-62
2022/03/06 00:03:04;;;;;;;34.50;21.60;;;-0.50;99.90;;;;;;5113919;28;20600;-63
2022/03/06 00:05:30;;;;;;;32.30;22.20;;;-0.50;99.90;;;;;;5115581;28;20192;-62
2022/03/06 00:07:58;;;;;;;30.77;19.40;;;-0.60;99.90;;;;;;5117681;28;20229;-62
2022/03/06 00:10:25;;;;;;;32.30;20.73;;;-0.50;99.90;;;;;;5118047;28;20172;-62
2022/03/06 00:12:51;;;;;;;34.10;20.53;;;-0.60;99.90;;;;;;5117929;28;20222;-62
2022/03/06 00:15:16;;;;;;;36.37;20.97;;;-0.50;99.90;;;;;;5117473;27;20700;-62
2022/03/06 00:17:42;;;;;;;33.00;20.43;;;-0.60;99.90;;;;;;5117382;28;20668;-61
2022/03/06 00:20:09;;;;;;;32.70;21.27;;;-0.60;99.90;;;;;;5116163;28;20221;-62
2022/03/06 00:22:36;;;;;;;33.80;20.70;;;-0.70;99.90;;;;;;5117462;28;20270;-63
2022/03/06 00:25:03;;;;;;;33.97;19.37;;;-0.80;99.90;;;;;;5117530;28;20204;-62
2022/03/06 00:27:29;;;;;;;35.87;21.53;;;-0.80;99.90;;;;;;5117388;27;20185;-62
2022/03/06 00:29:55;;;;;;;34.70;19.93;;;-0.80;99.90;;;;;;5117916;28;20257;-62
2022/03/06 00:32:20;;;;;;;31.67;19.80;;;-0.90;99.90;;;;;;5117311;28;20304;-62
2022/03/06 00:34:48;;;;;;;45.57;25.30;;;-0.90;99.90;;;;;;5115866;28;20200;-61
2022/03/06 00:37:14;;;;;;;38.43;22.53;;;-0.90;99.90;;;;;;5117127;28;20276;-62
2022/03/06 00:39:40;;;;;;;31.97;20.23;;;-0.90;99.90;;;;;;5117144;28;20168;-61
2022/03/06 00:42:07;;;;;;;35.87;21.47;;;-1.10;99.90;;;;;;5117084;28;20296;-62
2022/03/06 00:44:33;;;;;;;34.70;22.27;;;-1.10;99.90;;;;;;5116911;28;20196;-62
2022/03/06 00:46:59;;;;;;;32.53;21.30;;;-1.20;99.90;;;;;;5117167;28;20183;-61
2022/03/06 00:49:24;;;;;;;34.23;21.03;;;-1.20;99.90;;;;;;5116878;28;20188;-61
2022/03/06 00:51:50;;;;;;;32.90;22.07;;;-1.10;99.90;;;;;;5115516;28;20187;-62
2022/03/06 00:54:16;;;;;;;34.70;22.27;;;-1.10;99.90;;;;;;5116599;28;20249;-62
2022/03/06 00:56:41;;;;;;;35.70;21.57;;;-1.00;99.90;;;;;;5117008;28;20408;-62
2022/03/06 00:59:07;;;;;;;35.17;21.20;;;-1.00;99.90;;;;;;5116663;28;20173;-61
2022/03/06 01:01:34;;;;;;;34.33;21.50;;;-0.90;99.90;;;;;;5115374;28;20180;-62
2022/03/06 01:04:00;;;;;;;33.90;22.17;;;-0.90;99.90;;;;;;5115326;28;20570;-61
2022/03/06 01:06:25;;;;;;;37.80;22.63;;;-1.00;99.90;;;;;;5115539;28;20262;-62
2022/03/06 01:08:51;;;;;;;39.03;23.67;;;-1.10;99.90;;;;;;5115244;28;20212;-62
2022/03/06 01:11:17;;;;;;;34.17;21.70;;;-1.00;99.90;;;;;;5116825;28;20176;-62
2022/03/06 01:13:43;;;;;;;34.60;22.17;;;-1.00;99.90;;;;;;5116979;27;20215;-62
2022/03/06 01:16:08;;;;;;;38.57;23.83;;;-1.10;99.90;;;;;;5114508;28;20555;-62
2022/03/06 01:18:34;;;;;;;37.77;21.73;;;-1.10;99.90;;;;;;5116927;28;20164;-61
2022/03/06 01:21:00;;;;;;;32.30;21.60;;;-1.10;99.90;;;;;;5116258;28;20183;-62
2022/03/06 01:23:26;;;;;;;32.53;20.50;;;-1.10;99.90;;;;;;5116488;28;20304;-61
2022/03/06 01:25:51;;;;;;;29.90;21.03;;;-1.20;99.90;;;;;;5116170;28;20216;-62
2022/03/06 01:28:17;;;;;;;27.50;20.10;;;-1.30;99.90;;;;;;5116157;28;20225;-62
2022/03/06 01:30:43;;;;;;;33.00;20.90;;;-1.20;99.90;;;;;;5115981;28;20211;-62
2022/03/06 01:33:08;;;;;;;35.63;22.37;;;-1.20;99.90;;;;;;5115988;28;20223;-63
2022/03/06 01:35:34;;;;;;;38.00;22.97;;;-1.10;99.90;;;;;;5116007;28;20189;-63
2022/03/06 01:38:00;;;;;;;37.30;22.63;;;-1.20;99.90;;;;;;5115887;28;20686;-63
2022/03/06 01:40:26;;;;;;;38.47;22.37;;;-1.30;99.90;;;;;;5116220;28;20177;-63
2022/03/06 01:42:51;;;;;;;30.93;22.00;;;-1.30;99.90;;;;;;5116451;28;20691;-64
2022/03/06 01:45:21;;;;;;;34.13;22.03;;;-1.30;99.90;;;;;;5115978;28;20196;-63
2022/03/06 01:47:49;;;;;;;37.30;22.27;;;-1.30;99.90;;;;;;5115862;28;20184;-63
2022/03/06 01:50:20;;;;;;;33.63;23.37;;;-1.30;99.90;;;;;;5115777;28;20182;-63
2022/03/06 01:52:47;;;;;;;31.73;21.00;;;-1.40;99.90;;;;;;5115733;28;20164;-63
2022/03/06 01:55:16;;;;;;;35.37;20.83;;;-1.50;99.90;;;;;;5115661;28;20196;-64
2022/03/06 01:57:43;;;;;;;41.53;21.60;;;-1.60;99.90;;;;;;5115802;28;20569;-63
2022/03/06 02:00:13;;;;;;;36.17;20.83;;;-1.70;99.90;;;;;;5115690;28;20168;-64
2022/03/06 02:02:40;;;;;;;37.23;22.73;;;-1.70;99.90;;;;;;5116379;28;20172;-63
2022/03/06 02:05:07;;;;;;;33.07;20.80;;;-1.70;99.90;;;;;;5115465;28;20207;-63
2022/03/06 02:07:33;;;;;;;32.67;21.47;;;-1.70;99.90;;;;;;5115626;28;20301;-63
2022/03/06 02:09:59;;;;;;;37.83;22.57;;;-1.80;99.90;;;;;;5115605;28;20208;-63
2022/03/06 02:12:26;;;;;;;35.70;22.30;;;-1.70;99.90;;;;;;5115282;28;20237;-63
2022/03/06 02:14:57;;;;;;;35.53;22.63;;;-1.70;99.90;;;;;;5113895;28;20196;-64
2022/03/06 02:17:23;;;;;;;37.33;22.03;;;-1.70;99.90;;;;;;5115128;28;20333;-63
2022/03/06 02:19:56;;;;;;;30.33;19.60;;;-1.70;99.90;;;;;;5115159;28;20175;-64
2022/03/06 02:22:31;;;;;;;34.13;22.80;;;-1.70;99.90;;;;;;5115090;28;20169;-63
2022/03/06 02:24:58;;;;;;;37.87;23.33;;;-1.70;99.90;;;;;;5113778;28;20191;-64
2022/03/06 02:27:25;;;;;;;33.80;22.03;;;-1.70;99.90;;;;;;5114236;28;20663;-63
2022/03/06 02:29:51;;;;;;;37.33;22.67;;;-1.60;99.90;;;;;;5114871;28;20176;-63
2022/03/06 02:32:20;;;;;;;35.77;22.83;;;-1.40;99.90;;;;;;5114880;28;20199;-63
2022/03/06 02:34:47;;;;;;;37.67;23.17;;;-1.40;99.90;;;;;;5114790;28;20199;-64
2022/03/06 02:37:14;;;;;;;38.33;23.93;;;-1.30;99.90;;;;;;5114780;28;20612;-63
2022/03/06 02:39:43;;;;;;;40.20;23.10;;;-1.30;99.90;;;;;;5115053;28;20202;-63
2022/03/06 02:42:10;;;;;;;37.47;24.43;;;-1.40;99.90;;;;;;5114700;28;20165;-63
2022/03/06 02:44:36;;;;;;;34.40;22.87;;;-1.30;99.90;;;;;;5114849;28;20245;-64
2022/03/06 02:47:03;;;;;;;34.43;22.47;;;-1.20;99.90;;;;;;5114653;28;20181;-63
2022/03/06 02:49:29;;;;;;;38.37;22.73;;;-1.20;99.90;;;;;;5114900;28;20176;-63
2022/03/06 02:51:55;;;;;;;37.40;22.87;;;-1.20;99.90;;;;;;5114624;28;20313;-63
2022/03/06 02:54:20;;;;;;;42.90;23.00;;;-1.30;99.90;;;;;;5114529;28;20277;-63
2022/03/06 02:56:47;;;;;;;33.73;22.17;;;-1.30;99.90;;;;;;5114340;28;20688;-63
2022/03/06 02:59:13;;;;;;;42.10;23.77;;;-1.30;99.90;;;;;;5113152;28;20184;-63
2022/03/06 03:01:41;;;;;;;39.47;22.20;;;-1.20;99.90;;;;;;5114769;28;20177;-63
2022/03/06 03:04:11;;;;;;;38.63;22.93;;;-1.20;99.90;;;;;;5114222;28;20184;-63
2022/03/06 03:06:37;;;;;;;34.93;21.90;;;-1.20;99.90;;;;;;5114355;28;20179;-63
2022/03/06 03:09:07;;;;;;;36.03;22.97;;;-1.20;99.90;;;;;;5114539;28;20543;-63
2022/03/06 03:11:33;;;;;;;32.13;21.63;;;-1.30;99.90;;;;;;5114831;28;20309;-63
2022/03/06 03:14:01;;;;;;;31.77;21.73;;;-1.20;99.90;;;;;;5114235;27;20203;-63
2022/03/06 03:16:26;;;;;;;33.40;22.93;;;-1.10;99.90;;;;;;5114003;28;20181;-63
2022/03/06 03:18:52;;;;;;;34.20;22.10;;;-1.10;99.90;;;;;;5114249;28;20221;-63
2022/03/06 03:21:18;;;;;;;32.67;20.50;;;-1.10;99.90;;;;;;5114411;28;20182;-63
2022/03/06 03:23:44;;;;;;;37.53;22.60;;;-1.00;99.90;;;;;;5114025;28;20173;-64
2022/03/06 03:26:10;;;;;;;30.57;21.40;;;-1.00;99.90;;;;;;5114052;28;20657;-63
2022/03/06 03:28:35;;;;;;;35.00;22.97;;;-1.00;99.90;;;;;;5114245;28;20532;-63
2022/03/06 03:31:01;;;;;;;36.27;23.13;;;-1.00;99.90;;;;;;5113801;28;20221;-63
2022/03/06 03:33:27;;;;;;;39.33;22.20;;;-1.00;99.90;;;;;;5112608;28;20191;-64
2022/03/06 03:35:52;;;;;;;37.30;21.80;;;-1.20;99.90;;;;;;5114145;28;20564;-63
2022/03/06 03:38:18;;;;;;;37.07;22.37;;;-1.20;99.90;;;;;;5114274;28;20286;-63
2022/03/06 03:40:44;;;;;;;39.20;22.90;;;-1.20;99.90;;;;;;5120875;28;20171;-63
2022/03/06 03:43:10;;;;;;;34.50;22.33;;;-1.20;99.90;;;;;;5121006;27;20172;-63
2022/03/06 03:45:36;;;;;;;36.33;21.63;;;-1.20;99.90;;;;;;5120620;27;20268;-63
2022/03/06 03:48:02;;;;;;;35.77;23.73;;;-1.20;99.90;;;;;;5121186;27;20270;-64
2022/03/06 03:50:28;;;;;;;35.27;22.57;;;-1.20;99.90;;;;;;5120952;27;20172;-63
2022/03/06 03:52:54;;;;;;;34.77;22.50;;;-1.20;99.90;;;;;;5120787;27;20208;-63
2022/03/06 03:55:19;;;;;;;34.00;22.53;;;-1.20;99.90;;;;;;5120521;27;20196;-63
2022/03/06 03:57:45;;;;;;;31.20;21.73;;;-1.20;99.90;;;;;;5120606;27;20200;-63
2022/03/06 04:00:11;;;;;;;30.30;22.13;;;-1.20;99.90;;;;;;5120513;27;20177;-63
2022/03/06 04:02:37;;;;;;;37.30;23.97;;;-1.20;99.90;;;;;;5119245;28;20241;-63
2022/03/06 04:05:03;;;;;;;37.40;22.83;;;-1.20;99.90;;;;;;5120399;27;20664;-63
2022/03/06 04:07:29;;;;;;;40.20;22.13;;;-1.20;99.90;;;;;;5121043;27;20217;-63
2022/03/06 04:09:55;;;;;;;31.57;22.57;;;-1.10;99.90;;;;;;5119180;28;20180;-64
2022/03/06 04:12:20;;;;;;;37.17;21.57;;;-1.10;99.90;;;;;;5119202;28;20180;-63
2022/03/06 04:14:46;;;;;;;38.80;23.13;;;-1.10;99.90;;;;;;5120409;27;20264;-63
2022/03/06 04:17:12;;;;;;;34.93;22.37;;;-1.10;99.90;;;;;;5120322;27;20283;-63
2022/03/06 04:19:38;;;;;;;39.13;23.00;;;-1.10;99.90;;;;;;5120396;27;20195;-63
2022/03/06 04:22:03;;;;;;;39.47;23.27;;;-1.00;99.90;;;;;;5120462;27;20172;-64
2022/03/06 04:24:29;;;;;;;31.20;21.70;;;-1.00;99.90;;;;;;5120222;27;20568;-63
2022/03/06 04:26:55;;;;;;;37.67;22.90;;;-1.00;99.90;;;;;;5120490;27;20204;-63
2022/03/06 04:29:21;;;;;;;37.47;21.40;;;-1.00;99.90;;;;;;5120445;27;20176;-63
2022/03/06 04:31:47;;;;;;;35.30;22.33;;;-1.00;99.90;;;;;;5120632;27;20266;-63
2022/03/06 04:34:12;;;;;;;33.00;22.77;;;-1.00;99.90;;;;;;5120523;27;20208;-63
2022/03/06 04:36:38;;;;;;;32.33;22.70;;;-0.90;99.90;;;;;;5120437;27;20196;-63
2022/03/06 04:39:05;;;;;;;37.77;22.33;;;-0.90;99.90;;;;;;5120584;27;20169;-63
2022/03/06 04:41:31;;;;;;;34.50;21.90;;;-0.80;99.90;;;;;;5120268;27;20174;-62
2022/03/06 04:43:57;;;;;;;39.53;23.87;;;-0.90;99.90;;;;;;5120955;27;20192;-63
2022/03/06 04:46:23;;;;;;;32.87;21.27;;;-0.90;99.90;;;;;;5120322;28;20172;-63
2022/03/06 04:48:49;;;;;;;34.30;23.23;;;-0.80;99.90;;;;;;5120307;27;20536;-62
2022/03/06 04:51:15;;;;;;;37.53;22.60;;;-0.80;99.90;;;;;;5117768;27;20168;-62
2022/03/06 04:53:42;;;;;;;30.90;21.33;;;-0.80;99.90;;;;;;5116843;28;20173;-63
2022/03/06 04:56:08;;;;;;;39.17;23.03;;;-0.80;99.90;;;;;;5117143;28;20660;-63
2022/03/06 04:58:34;;;;;;;34.23;23.10;;;-0.80;99.90;;;;;;5115384;28;20668;-63
2022/03/06 05:01:00;;;;;;;38.73;23.37;;;-0.90;99.90;;;;;;5115582;28;20177;-62
2022/03/06 05:03:27;;;;;;;30.83;21.67;;;-0.80;99.90;;;;;;5117290;28;20170;-64
2022/03/06 05:05:53;;;;;;;36.63;22.60;;;-0.90;99.90;;;;;;5117006;28;20200;-64
2022/03/06 05:08:19;;;;;;;36.97;22.93;;;-0.90;99.90;;;;;;5116989;28;20177;-63
2022/03/06 05:10:45;;;;;;;32.63;22.70;;;-0.90;99.90;;;;;;5116832;27;20697;-63
2022/03/06 05:13:10;;;;;;;40.03;23.33;;;-0.80;99.90;;;;;;5116522;28;20668;-63
2022/03/06 05:15:36;;;;;;;40.57;23.20;;;-0.90;99.90;;;;;;5116437;28;20196;-63
2022/03/06 05:18:02;;;;;;;36.33;22.73;;;-0.90;99.90;;;;;;5116370;28;20239;-63
2022/03/06 05:20:28;;;;;;;32.30;21.83;;;-0.90;99.90;;;;;;5116358;28;20196;-62
2022/03/06 05:22:54;;;;;;;34.53;22.10;;;-0.90;99.90;;;;;;5116529;28;20183;-63
2022/03/06 05:25:20;;;;;;;41.20;23.33;;;-0.90;99.90;;;;;;5116413;27;20192;-62
2022/03/06 05:27:46;;;;;;;39.23;22.43;;;-1.00;99.90;;;;;;5114858;28;20543;-63
2022/03/06 05:30:13;;;;;;;34.23;22.23;;;-1.00;99.90;;;;;;5116138;28;20180;-62
2022/03/06 05:32:40;;;;;;;35.70;22.07;;;-1.00;99.90;;;;;;5115993;28;20192;-62
2022/03/06 05:35:06;;;;;;;33.47;22.20;;;-1.00;99.90;;;;;;5116120;28;20689;-62
2022/03/06 05:37:32;;;;;;;33.30;21.53;;;-1.00;99.90;;;;;;5115915;27;20208;-62
2022/03/06 05:39:58;;;;;;;33.20;22.37;;;-1.00;99.90;;;;;;5116276;28;20180;-62
2022/03/06 05:42:24;;;;;;;37.30;22.87;;;-1.00;99.90;;;;;;5116370;28;20172;-62
2022/03/06 05:44:50;;;;;;;33.97;22.93;;;-1.00;99.90;;;;;;5116286;28;20215;-62
2022/03/06 05:47:15;;;;;;;37.27;22.40;;;-1.10;99.90;;;;;;5115833;28;20629;-61
2022/03/06 05:49:41;;;;;;;37.07;22.20;;;-1.10;99.90;;;;;;5116769;28;20222;-62
2022/03/06 05:52:07;;;;;;;38.83;23.30;;;-1.20;99.90;;;;;;5115701;28;20176;-62
2022/03/06 05:54:32;;;;;;;30.30;20.43;;;-1.20;99.90;;;;;;5115408;28;20664;-61
2022/03/06 05:56:58;;;;;;;34.47;21.77;;;-1.20;99.90;;;;;;5115690;28;20550;-61
2022/03/06 05:59:24;;;;;;;38.43;23.47;;;-1.30;99.90;;;;;;5115423;28;20173;-63
2022/03/06 06:01:50;;;;;;;34.87;21.87;;;-1.40;99.90;;;;;;5114930;28;20539;-62
2022/03/06 06:04:16;;;;;;;41.03;24.07;;;-1.40;99.90;;;;;;5113499;28;20193;-61
2022/03/06 06:06:41;;;;;;;32.13;21.93;;;-1.30;99.90;;;;;;5115503;28;20202;-62
2022/03/06 06:09:08;;;;;;;31.43;22.37;;;-1.30;99.90;;;;;;5115442;28;20203;-61
2022/03/06 06:11:33;;;;;;;34.90;22.80;;;-1.30;99.90;;;;;;5114110;28;20208;-61
2022/03/06 06:13:59;;;;;;;29.53;21.43;;;-1.30;99.90;;;;;;5115327;28;20669;-63
2022/03/06 06:16:25;;;;;;;32.83;21.80;;;-1.30;99.90;;;;;;5115016;28;20176;-62
2022/03/06 06:18:51;;;;;;;34.80;22.67;;;-1.30;99.90;;;;;;5113800;28;20573;-62
2022/03/06 06:21:19;;;;;;;37.10;22.23;;;-1.30;99.90;;;;;;5114987;28;20165;-62
2022/03/06 06:23:45;;;;;;;32.80;21.90;;;-1.30;99.90;;;;;;5115225;28;20594;-61
2022/03/06 06:26:11;;;;;;;35.20;22.53;;;-1.40;99.90;;;;;;5114950;28;20196;-62
2022/03/06 06:28:36;;;;;;;33.23;21.00;;;-1.40;99.90;;;;;;5115187;28;20172;-61
2022/03/06 06:31:02;;;;;;;35.37;21.77;;;-1.40;99.90;;;;;;5114693;28;20237;-61
2022/03/06 06:33:28;;;;;;;31.77;21.60;;;-1.40;99.90;;;;;;5115011;28;20180;-61
2022/03/06 06:35:54;;;;;;;32.27;22.57;;;-1.40;99.90;;;;;;5113414;28;20227;-62
2022/03/06 06:38:21;;;;;;;33.50;22.77;;;-1.50;99.90;;;;;;5113297;28;20733;-62
2022/03/06 06:40:48;;;;;;;37.67;24.10;;;-1.50;99.90;;;;;;5114661;28;20160;-62
2022/03/06 06:43:13;;;;;;;42.90;24.30;;;-1.50;99.90;;;;;;5115124;28;20169;-62
2022/03/06 06:45:39;;;;;;;33.83;23.57;;;-1.50;99.90;;;;;;5114514;28;20237;-62
2022/03/06 06:48:06;;;;;;;47.17;29.00;;;-1.40;99.90;;;;;;5114506;28;20177;-62
2022/03/06 06:50:32;;;;;;;49.60;31.03;;;-1.40;99.90;;;;;;5114464;28;20224;-62
2022/03/06 06:52:58;;;;;;;52.67;32.03;;;-1.40;99.90;;;;;;5114426;28;20312;-62
2022/03/06 06:55:24;;;;;;;50.93;29.83;;;-1.30;99.90;;;;;;5114279;28;20232;-63
2022/03/06 06:57:49;;;;;;;47.57;29.67;;;-1.30;99.90;;;;;;5114258;28;20196;-62
2022/03/06 07:00:15;;;;;;;43.10;26.60;;;-1.20;99.90;;;;;;5114565;28;20224;-62
2022/03/06 07:02:42;;;;;;;50.23;25.90;;;-1.10;99.90;;;;;;5114831;28;20169;-62
2022/03/06 07:05:09;;;;;;;32.03;22.17;;;-1.00;99.90;;;;;;5114136;28;20201;-62
2022/03/06 07:07:35;;;;;;;36.47;24.37;;;-1.00;99.90;;;;;;5114128;28;20202;-62
2022/03/06 07:10:04;;;;;;;36.70;22.23;;;-0.90;99.90;;;;;;5114092;28;20180;-62
2022/03/06 07:12:30;;;;;;;34.27;22.30;;;-0.90;99.90;;;;;;5114207;28;20195;-62
2022/03/06 07:14:56;;;;;;;35.23;22.70;;;-0.80;99.90;;;;;;5113959;28;20670;-61
2022/03/06 07:17:22;;;;;;;36.47;21.73;;;-0.70;99.90;;;;;;5114382;28;20190;-63
2022/03/06 07:19:48;;;;;;;37.43;23.20;;;-0.60;99.90;;;;;;5114302;28;20255;-62
2022/03/06 07:22:15;;;;;;;33.37;23.23;;;-0.60;99.90;;;;;;5112717;28;20612;-62
2022/03/06 07:24:40;;;;;;;33.03;23.37;;;-0.50;99.90;;;;;;5113908;28;20185;-62
2022/03/06 07:27:06;;;;;;;31.77;22.23;;;-0.50;99.90;;;;;;5112608;28;20517;-62
2022/03/06 07:29:32;;;;;;;37.23;20.90;;;-0.40;99.90;;;;;;5113923;28;20181;-62
2022/03/06 07:31:58;;;;;;;34.57;22.30;;;-0.30;99.90;;;;;;5113859;28;20229;-62
2022/03/06 07:34:23;;;;;;;31.97;23.00;;;-0.10;99.90;;;;;;5113939;28;20253;-62
2022/03/06 07:36:49;;;;;;;34.73;23.27;;;0.10;99.90;;;;;;5113992;28;20192;-62
2022/03/06 07:39:15;;;;;;;36.33;23.17;;;0.30;99.90;;;;;;5113828;28;20609;-62
2022/03/06 07:41:41;;;;;;;31.57;23.00;;;0.50;99.90;;;;;;5113751;28;20168;-62
2022/03/06 07:44:06;;;;;;;32.90;22.50;;;0.60;99.90;;;;;;5113669;28;20226;-62
2022/03/06 07:46:32;;;;;;;32.10;22.43;;;0.70;99.90;;;;;;5113926;28;20211;-62
2022/03/06 07:48:58;;;;;;;30.97;21.47;;;0.80;99.90;;;;;;5113620;28;20173;-62
2022/03/06 07:51:23;;;;;;;27.37;20.63;;;1.00;99.90;;;;;;5113696;28;20176;-62
2022/03/06 07:53:49;;;;;;;29.83;20.90;;;1.30;99.90;;;;;;5113609;28;20632;-62
2022/03/06 07:56:15;;;;;;;33.53;20.70;;;1.60;99.90;;;;;;5113628;28;20176;-62
2022/03/06 07:58:41;;;;;;;31.93;19.90;;;1.90;99.90;;;;;;5113807;28;20248;-63
2022/03/06 08:01:06;;;;;;;31.17;20.17;;;2.00;99.90;;;;;;5113940;28;20149;-61
2022/03/06 08:03:32;;;;;;;29.73;19.50;;;2.10;99.90;;;;;;5113839;28;20229;-61
2022/03/06 08:05:58;;;;;;;31.23;19.87;;;2.30;99.90;;;;;;5114156;28;20173;-61
2022/03/06 08:08:23;;;;;;;29.10;19.93;;;2.40;99.90;;;;;;5113808;28;20529;-61
2022/03/06 08:10:49;;;;;;;29.00;20.37;;;2.50;99.90;;;;;;5113756;28;20635;-61
2022/03/06 08:13:15;;;;;;;27.70;20.07;;;2.50;99.90;;;;;;5113477;28;20252;-62
2022/03/06 08:15:41;;;;;;;26.73;19.50;;;2.60;99.90;;;;;;5113321;28;20196;-63
2022/03/06 08:18:06;;;;;;;26.37;19.03;;;2.80;99.90;;;;;;5113686;28;20661;-62
2022/03/06 08:20:32;;;;;;;25.60;18.80;;;3.10;99.90;;;;;;5113447;28;20177;-63
2022/03/06 08:22:58;;;;;;;26.80;18.33;;;3.60;99.90;;;;;;5112117;28;20537;-62
2022/03/06 08:25:23;;;;;;;27.20;18.60;;;4.00;99.90;;;;;;5113324;28;20188;-62
2022/03/06 08:27:49;;;;;;;23.80;16.43;;;4.80;99.90;;;;;;5117290;28;20173;-63
2022/03/06 08:30:15;;;;;;;27.60;17.90;;;6.30;99.90;;;;;;5117515;28;20172;-62
2022/03/06 08:32:41;;;;;;;24.70;16.23;;;7.50;99.90;;;;;;5117197;28;20563;-62
2022/03/06 08:35:08;;;;;;;20.73;16.63;;;8.50;99.90;;;;;;5117100;28;20725;-62
2022/03/06 08:37:33;;;;;;;22.98;17.02;;;9.60;99.90;;;;;;5117057;28;20195;-63
2022/03/06 08:39:59;;;;;;;22.52;16.30;;;10.80;99.90;;;;;;5117014;28;20161;-62
2022/03/06 08:42:25;;;;;;;20.70;16.17;;;11.50;99.30;;;;;;5116958;28;20716;-63
2022/03/06 08:44:51;;;;;;;20.80;16.38;;;11.70;96.30;;;;;;5115422;28;20188;-62
2022/03/06 08:47:17;;;;;;;20.73;15.27;;;12.10;96.10;;;;;;5116874;28;20211;-63
2022/03/06 08:49:43;;;;;;;21.35;15.25;;;12.10;96.70;;;;;;5116859;28;20233;-63
2022/03/06 08:52:10;;;;;;;21.55;15.73;;;11.80;93.20;;;;;;5115521;28;20603;-62
2022/03/06 08:54:36;;;;;;;19.95;16.27;;;12.00;95.20;;;;;;5116626;28;20201;-62
2022/03/06 08:57:03;;;;;;;19.73;15.90;;;12.00;95.40;;;;;;5116724;28;20257;-64
2022/03/06 08:59:28;;;;;;;19.20;14.90;;;12.10;95.30;;;;;;5115479;28;20179;-63
2022/03/06 09:01:55;;;;;;;20.55;15.73;;;12.40;93.30;;;;;;5117222;28;20263;-63
2022/03/06 09:04:25;;;;;;;21.30;16.30;;;12.00;92.40;;;;;;5116801;27;20245;-64
2022/03/06 09:06:52;;;;;;;20.30;15.02;;;12.00;95.50;;;;;;5117017;28;20546;-63
2022/03/06 09:09:17;;;;;;;21.17;15.38;;;12.10;94.70;;;;;;5115292;28;20177;-62
2022/03/06 09:11:45;;;;;;;17.30;14.60;;;12.00;93.50;;;;;;5116505;28;20181;-62
2022/03/06 09:14:11;;;;;;;18.13;15.27;;;11.70;94.20;;;;;;5116478;28;20188;-63
2022/03/06 09:16:37;;;;;;;19.08;15.02;;;11.50;93.90;;;;;;5116297;28;20206;-63
2022/03/06 09:19:03;;;;;;;17.73;15.15;;;11.30;92.40;;;;;;5116530;28;20211;-62
2022/03/06 09:21:29;;;;;;;19.40;15.15;;;10.90;95.00;;;;;;5115004;28;20268;-63
2022/03/06 09:23:54;;;;;;;19.90;15.10;;;10.40;95.70;;;;;;5116104;28;20203;-63
2022/03/06 09:26:21;;;;;;;19.33;16.08;;;10.20;97.70;;;;;;5116091;28;20538;-62
2022/03/06 09:28:46;;;;;;;21.05;14.93;;;9.90;98.40;;;;;;5114680;28;20184;-62
2022/03/06 09:31:12;;;;;;;17.75;14.27;;;9.40;99.50;;;;;;5116049;28;20177;-62
2022/03/06 09:33:38;;;;;;;17.55;14.52;;;9.10;99.90;;;;;;5116437;28;20166;-62
2022/03/06 09:36:04;;;;;;;16.98;14.73;;;9.00;99.90;;;;;;5116246;28;20172;-62
2022/03/06 09:38:30;;;;;;;19.70;14.38;;;8.80;99.90;;;;;;5115713;28;20208;-62
2022/03/06 09:41:01;;;;;;;16.87;14.73;;;8.50;99.90;;;;;;5116159;28;20188;-63
2022/03/06 09:43:28;;;;;;;22.50;15.53;;;8.40;99.90;;;;;;5116591;28;20164;-62
2022/03/06 09:46:03;;;;;;;19.37;15.30;;;7.90;99.90;;;;;;5116128;28;20656;-62
2022/03/06 09:48:30;;;;;;;18.93;14.73;;;7.60;99.90;;;;;;5116211;28;20156;-62
2022/03/06 09:50:56;;;;;;;20.77;14.63;;;7.40;99.90;;;;;;5116148;28;20184;-63
2022/03/06 09:53:22;;;;;;;18.13;14.57;;;7.40;99.90;;;;;;5115944;28;20173;-62
2022/03/06 09:55:48;;;;;;;20.30;15.13;;;7.30;99.90;;;;;;5114559;28;20248;-63
2022/03/06 09:58:14;;;;;;;18.87;15.00;;;7.30;99.90;;;;;;5115776;27;20540;-62
2022/03/06 10:00:41;;;;;;;20.37;14.20;;;7.30;99.90;;;;;;5114278;28;20184;-62
2022/03/06 10:03:06;;;;;;;18.77;14.33;;;7.20;99.90;;;;;;5115609;28;20228;-63
2022/03/06 10:05:37;;;;;;;19.50;14.37;;;7.10;99.90;;;;;;5115485;28;20215;-61
2022/03/06 10:08:21;;;;;;;18.33;14.57;;;7.10;99.90;;;;;;5116039;28;20629;-62
2022/03/06 10:10:59;;;;;;;17.33;13.87;;;7.10;99.90;;;;;;5115466;28;20621;-62
2022/03/06 10:13:33;;;;;;;16.40;13.47;;;7.10;99.90;;;;;;5115314;28;20164;-61
2022/03/06 10:16:15;;;;;;;16.17;13.70;;;7.20;99.90;;;;;;5115790;28;20175;-62
2022/03/06 10:18:48;;;;;;;17.63;13.60;;;7.20;99.90;;;;;;5115173;28;20597;-62
2022/03/06 10:21:17;;;;;;;19.13;13.97;;;7.30;99.90;;;;;;5115835;28;20153;-62
2022/03/06 10:23:43;;;;;;;18.33;13.93;;;7.40;99.90;;;;;;5115244;28;20224;-63
2022/03/06 10:26:13;;;;;;;17.43;14.07;;;7.30;99.90;;;;;;5115391;28;20169;-63
2022/03/06 10:28:45;;;;;;;18.90;13.80;;;7.30;99.90;;;;;;5115233;28;20179;-63
2022/03/06 10:31:11;;;;;;;18.33;12.77;;;7.20;98.60;;;;;;5115031;28;20192;-62
2022/03/06 10:33:37;;;;;;;16.47;13.33;;;7.30;98.80;;;;;;5113647;28;20281;-63
2022/03/06 10:36:07;;;;;;;13.97;12.57;;;7.30;98.30;;;;;;5115324;28;20183;-62
2022/03/06 10:38:35;;;;;;;15.90;13.13;;;7.40;97.60;;;;;;5114841;28;20311;-62
2022/03/06 10:41:13;;;;;;;17.47;12.70;;;7.50;98.50;;;;;;5113576;28;20654;-63
2022/03/06 10:43:40;;;;;;;16.93;13.43;;;7.60;97.80;;;;;;5115043;28;20195;-61
2022/03/06 10:46:18;;;;;;;15.03;13.00;;;7.60;99.10;;;;;;5113454;28;20236;-61
2022/03/06 10:48:53;;;;;;;16.27;13.33;;;7.70;98.30;;;;;;5114640;28;20222;-62
2022/03/06 10:51:20;;;;;;;16.73;13.23;;;7.70;95.90;;;;;;5114826;28;20156;-62
2022/03/06 10:53:52;;;;;;;14.00;12.43;;;7.80;96.20;;;;;;5114338;28;20176;-62
2022/03/06 10:56:18;;;;;;;15.03;12.63;;;7.90;96.10;;;;;;5114644;28;20157;-63
2022/03/06 10:58:45;;;;;;;16.97;12.73;;;7.90;96.80;;;;;;5114373;28;20695;-62
2022/03/06 11:01:12;;;;;;;16.00;13.10;;;8.00;97.10;;;;;;5114396;28;20173;-63
2022/03/06 11:03:38;;;;;;;17.70;13.90;;;7.90;95.20;;;;;;5115024;28;20175;-61
2022/03/06 11:06:05;;;;;;;16.40;13.30;;;7.90;95.30;;;;;;5114772;28;20172;-61
2022/03/06 11:08:32;;;;;;;17.87;14.03;;;8.10;96.00;;;;;;5115130;28;20189;-62
2022/03/06 11:10:59;;;;;;;15.63;12.77;;;8.20;96.10;;;;;;5113063;28;20198;-62
2022/03/06 11:13:27;;;;;;;15.63;12.77;;;8.40;96.10;;;;;;5114296;28;20533;-62
2022/03/06 11:15:53;;;;;;;16.50;12.37;;;8.60;93.20;;;;;;5114114;28;20204;-62
2022/03/06 11:18:19;;;;;;;18.33;12.60;;;8.70;92.10;;;;;;5114206;28;20279;-62
2022/03/06 11:20:46;;;;;;;18.80;13.20;;;8.80;92.60;;;;;;5114197;28;20173;-62
2022/03/06 11:23:34;;;;;;;15.60;12.23;;;8.90;92.40;;;;;;5114058;28;20164;-62
2022/03/06 11:26:17;;;;;;;15.17;12.50;;;9.10;91.60;;;;;;5114156;28;20218;-62
2022/03/06 11:29:04;;;;;;;16.07;12.57;;;9.20;90.50;;;;;;5114574;28;20187;-63
2022/03/06 11:31:49;;;;;;;13.83;11.73;;;9.30;88.10;;;;;;5113426;28;20188;-63
2022/03/06 11:34:33;;;;;;;14.33;12.30;;;9.70;88.20;;;;;;5114924;28;20193;-62
2022/03/06 11:37:15;;;;;;;13.27;11.77;;;9.70;84.50;;;;;;5115067;28;20192;-62
2022/03/06 11:39:42;;;;;;;16.33;12.20;;;9.80;88.90;;;;;;5114754;28;20674;-62
2022/03/06 11:42:09;;;;;;;14.77;11.63;;;9.90;86.40;;;;;;5114124;28;20713;-62
2022/03/06 11:44:35;;;;;;;16.33;12.33;;;9.90;87.70;;;;;;5113752;28;20235;-62
2022/03/06 11:47:18;;;;;;;15.10;11.97;;;9.80;85.90;;;;;;5113935;28;20172;-63
2022/03/06 11:50:02;;;;;;;17.17;12.35;;;9.90;82.70;;;;;;5114102;28;20228;-62
2022/03/06 11:52:33;;;;;;;14.63;12.37;;;10.30;85.00;;;;;;5114157;28;20176;-63
2022/03/06 11:54:59;;;;;;;16.27;13.07;;;10.40;81.10;;;;;;5113790;28;20200;-63
2022/03/06 11:57:39;;;;;;;14.57;12.52;;;10.30;79.70;;;;;;5113592;28;20566;-63
2022/03/06 12:00:24;;;;;;;14.82;12.80;;;10.50;79.30;;;;;;5113652;28;20200;-63
2022/03/06 12:02:55;;;;;;;14.57;12.35;;;10.70;80.60;;;;;;5118051;28;20605;-62
2022/03/06 12:05:23;;;;;;;14.55;11.98;;;10.70;82.20;;;;;;5117801;28;20189;-62
2022/03/06 12:07:50;;;;;;;14.55;12.55;;;10.70;80.00;;;;;;5117690;28;20701;-63
2022/03/06 12:10:17;;;;;;;16.20;14.00;;;10.20;82.50;;;;;;5117638;28;20540;-62
2022/03/06 12:12:57;;;;;;;14.65;13.13;;;9.70;82.20;;;;;;5117658;28;20264;-63
2022/03/06 12:15:28;;;;;;;17.07;12.83;;;9.40;81.90;;;;;;5117690;28;20570;-63
2022/03/06 12:18:01;;;;;;;16.13;12.83;;;9.40;87.40;;;;;;5117731;28;20200;-63
2022/03/06 12:20:28;;;;;;;13.53;12.13;;;9.20;83.60;;;;;;5117749;27;20557;-63
2022/03/06 12:22:57;;;;;;;16.87;13.37;;;8.90;80.80;;;;;;5117393;28;20169;-63
2022/03/06 12:25:31;;;;;;;14.77;12.53;;;8.70;85.30;;;;;;5117370;28;20216;-64
2022/03/06 12:28:03;;;;;;;16.00;12.30;;;8.60;85.50;;;;;;5117395;28;20558;-63
2022/03/06 12:30:31;;;;;;;15.73;13.17;;;8.70;87.90;;;;;;5117365;28;20176;-63